Date,TemperatureHighF,TemperatureAvgF,TemperatureLowF,DewpointHighF,DewpointAvgF,DewpointLowF,HumidityHigh,HumidityAvg,HumidityLow,PressureMaxIn,PressureMinIn,WindSpeedMaxMPH,WindSpeedAvgMPH,GustSpeedMaxMPH,PrecipitationSumIn
2013-10-1,79.7,64.4,54.5,65.3,58.9,53.4,97,84,53,30.15,30.05,6,1,10,0.00
2013-10-2,81.2,65.7,54.5,67.0,59.6,53.1,97,83,50,30.17,30.06,8,1,11,0.01
2013-10-3,81.0,67.7,58.4,69.3,62.3,57.2,97,84,57,30.16,30.07,10,1,10,0.00
2013-10-4,83.8,69.2,58.8,69.7,63.2,57.7,97,83,52,30.16,30.06,7,1,12,0.00
2013-10-5,85.0,70.8,61.1,69.8,64.5,60.0,97,83,52,30.16,30.03,7,1,12,0.01
2013-10-6,82.2,69.8,58.8,69.3,63.6,57.7,97,82,58,30.06,29.91,6,1,16,0.00
2013-10-7,70.6,65.1,52.3,68.7,59.8,49.7,97,84,62,30.10,29.79,20,2,26,2.40
2013-10-8,66.1,56.8,49.7,50.2,47.8,46.2,92,74,49,30.31,30.09,10,3,14,0.00
2013-10-9,64.5,55.7,48.4,51.8,48.7,46.8,95,79,54,30.32,30.22,11,2,12,0.00
2013-10-10,66.4,58.5,51.1,59.2,53.9,46.6,95,85,73,30.22,30.01,13,4,17,0.30
2013-10-11,72.5,64.6,59.1,64.6,58.8,55.2,89,82,68,30.01,29.94,9,2,12,0.00
2013-10-12,67.6,63.6,60.4,64.0,60.7,57.7,96,90,84,30.15,30.00,10,2,11,0.06
2013-10-13,66.2,63.0,60.7,63.3,61.2,59.5,97,94,87,30.29,30.14,4,0,6,0.08
2013-10-14,68.8,62.0,58.9,61.8,59.2,56.4,97,91,76,30.32,30.21,6,0,7,0.24
2013-10-15,69.4,59.4,51.9,58.4,54.6,50.5,97,85,57,30.27,30.11,5,1,8,0.00
2013-10-16,70.5,61.6,53.6,62.4,57.5,52.2,96,87,70,30.14,29.96,6,0,9,0.00
2013-10-17,66.7,62.4,59.0,64.7,60.4,53.8,97,93,79,29.97,29.81,9,1,13,0.09
2013-10-18,65.4,56.8,49.1,53.8,46.9,43.3,92,71,47,30.08,29.94,15,2,21,0.00
2013-10-19,60.1,53.4,48.0,57.2,50.9,46.4,99,92,80,30.03,29.84,5,0,6,0.00
2013-10-20,60.3,47.0,40.0,49.0,41.3,37.6,94,81,43,30.16,29.96,8,1,14,0.00
2013-10-21,65.9,50.6,36.6,51.5,44.5,35.3,98,82,57,30.22,30.01,7,1,9,0.00
2013-10-22,67.9,55.8,47.6,54.3,48.9,46.2,99,80,52,30.02,29.83,12,1,19,0.01
2013-10-23,59.4,51.5,43.8,50.7,44.0,32.0,96,77,49,30.03,29.73,24,3,33,0.14
2013-10-24,51.2,44.3,36.0,35.4,33.0,31.3,92,65,48,30.24,30.03,18,4,25,0.00
2013-10-25,48.7,40.6,34.2,33.0,29.9,26.3,88,68,43,30.42,30.23,13,3,22,0.00
2013-10-26,57.3,42.5,27.6,40.2,31.2,25.8,94,68,33,30.41,30.06,8,2,14,0.00
2013-10-27,64.7,51.6,37.7,44.2,39.3,35.0,92,66,38,30.16,30.05,12,1,20,0.00
2013-10-28,64.0,51.0,38.2,52.7,45.4,36.6,96,82,58,30.30,30.16,6,1,7,0.00
2013-10-29,68.0,58.5,51.7,54.6,52.6,50.3,96,82,56,30.39,30.28,6,0,9,0.00
2013-10-30,71.2,59.6,53.3,61.2,55.9,51.5,96,88,68,30.32,30.16,6,0,12,0.07
2013-10-31,69.3,62.4,56.4,60.7,57.9,55.3,97,86,69,30.20,29.82,8,1,19,0.00